sensor_id;sensor_type;location;lat;lon;timestamp;pressure;altitude;pressure_sealevel;temperature;humidity
84122;BME280;74217;51.106;17.084;2024-03-08T00:00:05;101072.94;;;0.84;70.26
84122;BME280;74217;51.106;17.084;2024-03-08T00:03:17;101076.28;;;0.74;71.35
84122;BME280;74217;51.106;17.084;2024-03-08T00:06:02;101082.41;;;0.83;70.57
84122;BME280;74217;51.106;17.084;2024-03-08T00:08:49;101078.94;;;0.78;70.61
84122;BME280;74217;51.106;17.084;2024-03-08T00:11:35;101082.38;;;0.79;70.80
84122;BME280;74217;51.106;17.084;2024-03-08T00:14:20;101078.06;;;0.78;71.20
84122;BME280;74217;51.106;17.084;2024-03-08T00:17:07;101084.91;;;0.70;71.33
84122;BME280;74217;51.106;17.084;2024-03-08T00:19:52;101088.31;;;0.63;72.46
84122;BME280;74217;51.106;17.084;2024-03-08T00:22:38;101084.00;;;0.68;72.28
84122;BME280;74217;51.106;17.084;2024-03-08T00:25:23;101073.69;;;0.74;71.42
84122;BME280;74217;51.106;17.084;2024-03-08T00:28:08;101081.41;;;0.68;71.79
84122;BME280;74217;51.106;17.084;2024-03-08T00:30:53;101079.72;;;0.70;71.79
84122;BME280;74217;51.106;17.084;2024-03-08T00:33:38;101085.72;;;0.63;72.20
84122;BME280;74217;51.106;17.084;2024-03-08T00:36:24;101082.28;;;0.68;71.73
84122;BME280;74217;51.106;17.084;2024-03-08T00:39:09;101083.19;;;0.69;71.23
84122;BME280;74217;51.106;17.084;2024-03-08T00:41:54;101080.56;;;0.67;71.28
84122;BME280;74217;51.106;17.084;2024-03-08T00:44:39;101077.84;;;0.54;71.86
84122;BME280;74217;51.106;17.084;2024-03-08T00:47:24;101077.00;;;0.56;72.18
84122;BME280;74217;51.106;17.084;2024-03-08T00:50:10;101081.34;;;0.56;72.25
84122;BME280;74217;51.106;17.084;2024-03-08T00:52:55;101053.56;;;0.43;72.41
84122;BME280;74217;51.106;17.084;2024-03-08T00:55:40;101067.50;;;0.55;71.67
84122;BME280;74217;51.106;17.084;2024-03-08T00:58:26;101065.81;;;0.62;71.93
84122;BME280;74217;51.106;17.084;2024-03-08T01:01:13;101067.53;;;0.57;71.33
84122;BME280;74217;51.106;17.084;2024-03-08T01:04:00;101061.47;;;0.56;71.70
84122;BME280;74217;51.106;17.084;2024-03-08T01:06:45;101058.84;;;0.52;71.73
84122;BME280;74217;51.106;17.084;2024-03-08T01:09:32;101054.47;;;0.48;71.79
84122;BME280;74217;51.106;17.084;2024-03-08T01:12:17;101061.38;;;0.46;72.54
84122;BME280;74217;51.106;17.084;2024-03-08T01:15:02;101053.56;;;0.40;72.06
84122;BME280;74217;51.106;17.084;2024-03-08T01:17:46;101049.25;;;0.42;72.27
84122;BME280;74217;51.106;17.084;2024-03-08T01:20:31;101046.59;;;0.33;72.06
84122;BME280;74217;51.106;17.084;2024-03-08T01:23:16;101045.69;;;0.32;72.55
84122;BME280;74217;51.106;17.084;2024-03-08T01:26:02;101046.59;;;0.36;72.61
84122;BME280;74217;51.106;17.084;2024-03-08T01:28:47;101042.28;;;0.35;71.92
84122;BME280;74217;51.106;17.084;2024-03-08T01:31:32;101036.22;;;0.33;72.01
84122;BME280;74217;51.106;17.084;2024-03-08T01:34:17;101031.00;;;0.30;71.95
84122;BME280;74217;51.106;17.084;2024-03-08T01:37:02;101031.84;;;0.26;71.75
84122;BME280;74217;51.106;17.084;2024-03-08T01:39:47;101034.44;;;0.26;71.21
84122;BME280;74217;51.106;17.084;2024-03-08T01:42:32;101031.78;;;0.20;71.94
84122;BME280;74217;51.106;17.084;2024-03-08T01:45:17;101030.03;;;0.17;71.94
84122;BME280;74217;51.106;17.084;2024-03-08T01:48:02;101023.97;;;0.17;71.60
84122;BME280;74217;51.106;17.084;2024-03-08T01:50:47;101026.53;;;0.12;72.82
84122;BME280;74217;51.106;17.084;2024-03-08T01:53:32;101022.19;;;0.07;72.27
84122;BME280;74217;51.106;17.084;2024-03-08T01:56:17;101027.41;;;0.13;72.52
84122;BME280;74217;51.106;17.084;2024-03-08T01:59:03;101022.22;;;0.11;72.72
84122;BME280;74217;51.106;17.084;2024-03-08T02:01:48;101023.06;;;0.10;72.62
84122;BME280;74217;51.106;17.084;2024-03-08T02:04:34;101017.88;;;0.09;72.96
84122;BME280;74217;51.106;17.084;2024-03-08T02:07:20;101026.50;;;0.09;72.75
84122;BME280;74217;51.106;17.084;2024-03-08T02:10:07;101012.63;;;0.03;73.28
84122;BME280;74217;51.106;17.084;2024-03-08T02:12:52;101019.56;;;0.05;73.02
84122;BME280;74217;51.106;17.084;2024-03-08T02:15:57;101019.53;;;0.04;72.65
84122;BME280;74217;51.106;17.084;2024-03-08T02:18:45;101015.25;;;0.04;72.96
84122;BME280;74217;51.106;17.084;2024-03-08T02:21:32;101011.78;;;0.04;72.80
84122;BME280;74217;51.106;17.084;2024-03-08T02:24:17;101016.03;;;-0.03;72.96
84122;BME280;74217;51.106;17.084;2024-03-08T02:27:02;101009.97;;;-0.03;72.17
84122;BME280;74217;51.106;17.084;2024-03-08T02:29:47;101016.03;;;-0.03;72.25
84122;BME280;74217;51.106;17.084;2024-03-08T02:32:33;101014.25;;;-0.07;73.52
84122;BME280;74217;51.106;17.084;2024-03-08T02:35:17;101015.16;;;-0.03;72.93
84122;BME280;74217;51.106;17.084;2024-03-08T02:38:04;101010.69;;;-0.16;72.96
84122;BME280;74217;51.106;17.084;2024-03-08T02:40:50;101010.69;;;-0.19;73.79
84122;BME280;74217;51.106;17.084;2024-03-08T02:43:35;101005.50;;;-0.19;73.03
84122;BME280;74217;51.106;17.084;2024-03-08T02:46:20;100999.47;;;-0.17;72.51
84122;BME280;74217;51.106;17.084;2024-03-08T02:49:05;101001.22;;;-0.17;72.98
84122;BME280;74217;51.106;17.084;2024-03-08T02:51:53;100999.44;;;-0.21;72.70
84122;BME280;74217;51.106;17.084;2024-03-08T02:54:38;100989.94;;;-0.25;73.16
84122;BME280;74217;51.106;17.084;2024-03-08T02:57:22;100994.25;;;-0.24;72.96
84122;BME280;74217;51.106;17.084;2024-03-08T03:00:08;100996.72;;;-0.32;73.05
84122;BME280;74217;51.106;17.084;2024-03-08T03:02:56;101008.03;;;-0.25;73.37
84122;BME280;74217;51.106;17.084;2024-03-08T03:05:42;101003.75;;;-0.22;73.19
84122;BME280;74217;51.106;17.084;2024-03-08T03:08:27;100994.25;;;-0.21;72.70
84122;BME280;74217;51.106;17.084;2024-03-08T03:11:13;100997.75;;;-0.19;72.76
84122;BME280;74217;51.106;17.084;2024-03-08T03:14:01;100995.91;;;-0.26;72.70
84122;BME280;74217;51.106;17.084;2024-03-08T03:16:46;100994.25;;;-0.24;73.35
84122;BME280;74217;51.106;17.084;2024-03-08T03:19:31;100997.63;;;-0.28;73.34
84122;BME280;74217;51.106;17.084;2024-03-08T03:22:15;100998.50;;;-0.26;73.34
84122;BME280;74217;51.106;17.084;2024-03-08T03:25:00;101001.06;;;-0.29;72.88
84122;BME280;74217;51.106;17.084;2024-03-08T03:27:45;100999.28;;;-0.36;73.67
84122;BME280;74217;51.106;17.084;2024-03-08T03:30:30;100994.03;;;-0.42;73.88
84122;BME280;74217;51.106;17.084;2024-03-08T03:33:17;100995.75;;;-0.41;73.95
84122;BME280;74217;51.106;17.084;2024-03-08T03:36:03;100998.81;;;-0.72;75.34
84122;BME280;74217;51.106;17.084;2024-03-08T03:38:50;101001.66;;;-0.53;74.52
84122;BME280;74217;51.106;17.084;2024-03-08T03:41:36;100996.50;;;-0.50;73.49
84122;BME280;74217;51.106;17.084;2024-03-08T03:44:21;101002.50;;;-0.52;73.38
84122;BME280;74217;51.106;17.084;2024-03-08T03:47:08;100989.63;;;-0.49;73.90
84122;BME280;74217;51.106;17.084;2024-03-08T03:49:53;100998.22;;;-0.52;74.07
84122;BME280;74217;51.106;17.084;2024-03-08T03:52:38;101000.75;;;-0.56;74.00
84122;BME280;74217;51.106;17.084;2024-03-08T03:55:23;100987.50;;;-0.80;75.38
84122;BME280;74217;51.106;17.084;2024-03-08T03:58:09;101000.59;;;-0.68;75.03
84122;BME280;74217;51.106;17.084;2024-03-08T04:00:56;100996.25;;;-0.71;74.87
84122;BME280;74217;51.106;17.084;2024-03-08T04:03:41;100997.19;;;-0.64;74.63
84122;BME280;74217;51.106;17.084;2024-03-08T04:06:28;100994.53;;;-0.72;74.31
84122;BME280;74217;51.106;17.084;2024-03-08T04:09:13;101002.03;;;-0.87;75.06
84122;BME280;74217;51.106;17.084;2024-03-08T04:11:58;101000.25;;;-0.92;75.41
84122;BME280;74217;51.106;17.084;2024-03-08T04:14:42;100988.38;;;-0.81;75.52
84122;BME280;74217;51.106;17.084;2024-03-08T04:17:28;101000.44;;;-0.80;74.95
84122;BME280;74217;51.106;17.084;2024-03-08T04:20:13;101002.31;;;-0.67;74.45
84122;BME280;74217;51.106;17.084;2024-03-08T04:22:59;100991.91;;;-0.73;74.21
84122;BME280;74217;51.106;17.084;2024-03-08T04:25:44;100988.38;;;-0.78;74.19
84122;BME280;74217;51.106;17.084;2024-03-08T04:28:29;100972.47;;;-1.10;75.66
84122;BME280;74217;51.106;17.084;2024-03-08T04:31:14;100980.44;;;-0.92;75.41
84122;BME280;74217;51.106;17.084;2024-03-08T04:34:00;100990.03;;;-0.83;75.56
84122;BME280;74217;51.106;17.084;2024-03-08T04:36:45;100985.00;;;-0.74;74.37
84122;BME280;74217;51.106;17.084;2024-03-08T04:39:30;100990.16;;;-0.73;74.66
84122;BME280;74217;51.106;17.084;2024-03-08T04:42:16;100990.34;;;-0.62;74.63
84122;BME280;74217;51.106;17.084;2024-03-08T04:45:02;100996.41;;;-0.59;73.96
84122;BME280;74217;51.106;17.084;2024-03-08T04:47:49;100997.31;;;-0.54;73.92
84122;BME280;74217;51.106;17.084;2024-03-08T04:50:34;100991.09;;;-0.71;73.77
84122;BME280;74217;51.106;17.084;2024-03-08T04:53:18;100991.09;;;-0.69;73.77
84122;BME280;74217;51.106;17.084;2024-03-08T04:56:04;100999.78;;;-0.66;73.82
84122;BME280;74217;51.106;17.084;2024-03-08T04:58:50;100993.75;;;-0.63;73.57
84122;BME280;74217;51.106;17.084;2024-03-08T05:01:35;100991.16;;;-0.65;73.76
84122;BME280;74217;51.106;17.084;2024-03-08T05:04:22;100992.69;;;-0.80;74.89
84122;BME280;74217;51.106;17.084;2024-03-08T05:07:06;100991.97;;;-0.69;74.28
84122;BME280;74217;51.106;17.084;2024-03-08T05:09:52;100990.91;;;-0.83;74.44
84122;BME280;74217;51.106;17.084;2024-03-08T05:12:37;100978.84;;;-0.82;74.34
84122;BME280;74217;51.106;17.084;2024-03-08T05:15:25;100981.41;;;-0.85;74.43
84122;BME280;74217;51.106;17.084;2024-03-08T05:18:10;100992.69;;;-0.80;74.80
84122;BME280;74217;51.106;17.084;2024-03-08T05:20:56;100993.63;;;-0.75;74.85
84122;BME280;74217;51.106;17.084;2024-03-08T05:23:41;100995.28;;;-0.77;74.08
84122;BME280;74217;51.106;17.084;2024-03-08T05:26:25;100986.75;;;-0.73;74.12
84122;BME280;74217;51.106;17.084;2024-03-08T05:29:12;100990.19;;;-0.74;73.91
84122;BME280;74217;51.106;17.084;2024-03-08T05:31:58;100980.59;;;-0.83;74.37
84122;BME280;74217;51.106;17.084;2024-03-08T05:34:44;100986.59;;;-0.82;74.33
84122;BME280;74217;51.106;17.084;2024-03-08T05:37:29;100983.94;;;-0.88;75.21
84122;BME280;74217;51.106;17.084;2024-03-08T05:40:16;100980.38;;;-0.96;75.39
84122;BME280;74217;51.106;17.084;2024-03-08T05:43:01;100985.59;;;-0.92;75.40
84122;BME280;74217;51.106;17.084;2024-03-08T05:45:46;100987.13;;;-1.09;76.46
84122;BME280;74217;51.106;17.084;2024-03-08T05:48:31;100994.03;;;-1.06;75.63
84122;BME280;74217;51.106;17.084;2024-03-08T05:51:19;101001.91;;;-0.97;75.21
84122;BME280;74217;51.106;17.084;2024-03-08T05:54:07;100994.84;;;-1.09;76.14
84122;BME280;74217;51.106;17.084;2024-03-08T05:56:55;100988.03;;;-1.02;76.13
84122;BME280;74217;51.106;17.084;2024-03-08T05:59:41;100989.94;;;-0.89;75.19
84122;BME280;74217;51.106;17.084;2024-03-08T06:02:26;100987.41;;;-0.88;75.94
84122;BME280;74217;51.106;17.084;2024-03-08T06:05:11;101000.25;;;-0.92;75.44
84122;BME280;74217;51.106;17.084;2024-03-08T06:07:56;101000.28;;;-0.89;75.89
84122;BME280;74217;51.106;17.084;2024-03-08T06:10:41;101003.09;;;-0.74;75.17
84122;BME280;74217;51.106;17.084;2024-03-08T06:13:26;100997.94;;;-0.74;74.45
84122;BME280;74217;51.106;17.084;2024-03-08T06:16:11;101000.34;;;-0.86;75.95
84122;BME280;74217;51.106;17.084;2024-03-08T06:18:57;101001.06;;;-0.95;76.39
84122;BME280;74217;51.106;17.084;2024-03-08T06:21:41;100997.69;;;-0.89;76.57
84122;BME280;74217;51.106;17.084;2024-03-08T06:24:26;101009.22;;;-0.66;74.94
84122;BME280;74217;51.106;17.084;2024-03-08T06:27:11;101012.66;;;-0.67;75.44
84122;BME280;74217;51.106;17.084;2024-03-08T06:29:56;101002.16;;;-0.79;74.94
84122;BME280;74217;51.106;17.084;2024-03-08T06:32:41;101011.53;;;-0.87;75.96
84122;BME280;74217;51.106;17.084;2024-03-08T06:35:27;101005.63;;;-0.77;76.03
84122;BME280;74217;51.106;17.084;2024-03-08T06:38:11;101001.59;;;-0.56;75.54
84122;BME280;74217;51.106;17.084;2024-03-08T06:40:57;100998.25;;;-0.49;75.77
84122;BME280;74217;51.106;17.084;2024-03-08T06:43:46;100997.22;;;-0.63;76.03
84122;BME280;74217;51.106;17.084;2024-03-08T06:46:33;100990.19;;;-0.71;76.12
84122;BME280;74217;51.106;17.084;2024-03-08T06:49:18;100999.84;;;-0.60;75.52
84122;BME280;74217;51.106;17.084;2024-03-08T06:52:04;100997.50;;;-0.40;74.81
84122;BME280;74217;51.106;17.084;2024-03-08T06:54:48;100987.50;;;-0.07;73.61
84122;BME280;74217;51.106;17.084;2024-03-08T06:57:34;100996.94;;;-0.14;73.77
84122;BME280;74217;51.106;17.084;2024-03-08T07:00:18;101004.63;;;-0.20;74.76
84122;BME280;74217;51.106;17.084;2024-03-08T07:03:08;100995.97;;;-0.23;75.73
84122;BME280;74217;51.106;17.084;2024-03-08T07:05:56;101004.53;;;-0.27;75.31
84122;BME280;74217;51.106;17.084;2024-03-08T07:08:44;100989.22;;;-0.09;74.69
84122;BME280;74217;51.106;17.084;2024-03-08T07:11:30;100991.13;;;0.07;72.73
84122;BME280;74217;51.106;17.084;2024-03-08T07:14:15;100995.28;;;-0.09;74.69
84122;BME280;74217;51.106;17.084;2024-03-08T07:17:00;101014.94;;;-0.21;75.17
84122;BME280;74217;51.106;17.084;2024-03-08T07:19:44;100997.97;;;0.02;74.72
84122;BME280;74217;51.106;17.084;2024-03-08T07:22:29;100996.53;;;0.32;73.54
84122;BME280;74217;51.106;17.084;2024-03-08T07:25:14;100995.00;;;0.54;72.79
84122;BME280;74217;51.106;17.084;2024-03-08T07:28:05;100996.00;;;0.74;72.03
84122;BME280;74217;51.106;17.084;2024-03-08T07:30:51;100995.03;;;0.57;72.96
84122;BME280;74217;51.106;17.084;2024-03-08T07:33:35;100993.41;;;0.71;72.08
84122;BME280;74217;51.106;17.084;2024-03-08T07:36:20;100987.38;;;0.69;71.79
84122;BME280;74217;51.106;17.084;2024-03-08T07:39:06;100986.59;;;0.85;71.19
84122;BME280;74217;51.106;17.084;2024-03-08T07:41:56;100993.47;;;0.77;71.31
84122;BME280;74217;51.106;17.084;2024-03-08T07:44:40;100985.84;;;0.98;72.00
84122;BME280;74217;51.106;17.084;2024-03-08T07:47:25;100983.31;;;1.10;71.33
84122;BME280;74217;51.106;17.084;2024-03-08T07:50:10;100986.94;;;1.39;70.54
84122;BME280;74217;51.106;17.084;2024-03-08T07:52:55;100990.44;;;1.44;70.52
84122;BME280;74217;51.106;17.084;2024-03-08T07:55:39;100980.09;;;1.56;69.87
84122;BME280;74217;51.106;17.084;2024-03-08T07:58:26;100982.59;;;1.39;69.08
84122;BME280;74217;51.106;17.084;2024-03-08T08:01:16;100978.34;;;1.56;69.28
84122;BME280;74217;51.106;17.084;2024-03-08T08:04:01;100985.16;;;1.33;70.05
84122;BME280;74217;51.106;17.084;2024-03-08T08:06:46;100984.31;;;1.36;69.14
84122;BME280;74217;51.106;17.084;2024-03-08T08:09:35;100989.56;;;1.46;69.88
84122;BME280;74217;51.106;17.084;2024-03-08T08:12:20;100984.34;;;1.43;69.91
84122;BME280;74217;51.106;17.084;2024-03-08T08:15:05;100975.75;;;1.52;70.50
84122;BME280;74217;51.106;17.084;2024-03-08T08:17:49;100977.56;;;1.72;69.71
84122;BME280;74217;51.106;17.084;2024-03-08T08:20:36;100969.78;;;1.80;70.33
84122;BME280;74217;51.106;17.084;2024-03-08T08:23:21;100972.44;;;2.04;68.18
84122;BME280;74217;51.106;17.084;2024-03-08T08:26:06;100979.34;;;2.00;68.00
84122;BME280;74217;51.106;17.084;2024-03-08T08:28:52;100971.56;;;2.05;68.36
84122;BME280;74217;51.106;17.084;2024-03-08T08:31:37;100968.13;;;2.18;68.72
84122;BME280;74217;51.106;17.084;2024-03-08T08:34:22;100975.09;;;2.40;66.99
84122;BME280;74217;51.106;17.084;2024-03-08T08:37:08;100966.44;;;2.48;67.23
84122;BME280;74217;51.106;17.084;2024-03-08T08:39:54;100959.50;;;2.40;66.86
84122;BME280;74217;51.106;17.084;2024-03-08T08:42:46;100973.34;;;2.36;68.54
84122;BME280;74217;51.106;17.084;2024-03-08T08:45:31;100961.22;;;2.39;67.51
84122;BME280;74217;51.106;17.084;2024-03-08T08:48:16;100956.06;;;2.38;67.01
84122;BME280;74217;51.106;17.084;2024-03-08T08:51:00;100964.69;;;2.49;67.92
84122;BME280;74217;51.106;17.084;2024-03-08T08:53:45;100962.97;;;2.57;67.20
84122;BME280;74217;51.106;17.084;2024-03-08T08:56:31;100965.56;;;2.82;66.09
84122;BME280;74217;51.106;17.084;2024-03-08T08:59:16;100957.81;;;2.87;64.84
84122;BME280;74217;51.106;17.084;2024-03-08T09:02:03;100954.31;;;2.88;65.43
84122;BME280;74217;51.106;17.084;2024-03-08T09:04:48;100956.06;;;2.84;65.79
84122;BME280;74217;51.106;17.084;2024-03-08T09:07:33;100952.59;;;2.67;66.46
84122;BME280;74217;51.106;17.084;2024-03-08T09:10:19;100961.25;;;2.89;64.54
84122;BME280;74217;51.106;17.084;2024-03-08T09:13:04;100950.81;;;2.99;65.38
84122;BME280;74217;51.106;17.084;2024-03-08T09:15:49;100956.03;;;3.01;66.18
84122;BME280;74217;51.106;17.084;2024-03-08T09:18:33;100950.78;;;3.19;65.36
84122;BME280;74217;51.106;17.084;2024-03-08T09:21:19;100949.97;;;3.02;63.38
84122;BME280;74217;51.106;17.084;2024-03-08T09:24:04;100950.78;;;3.10;65.02
84122;BME280;74217;51.106;17.084;2024-03-08T09:26:49;100944.72;;;3.21;64.38
84122;BME280;74217;51.106;17.084;2024-03-08T09:48:55;100907.25;;;3.63;62.31
84122;BME280;74217;51.106;17.084;2024-03-08T09:51:40;100900.31;;;3.62;61.78
84122;BME280;74217;51.106;17.084;2024-03-08T09:54:25;100902.03;;;3.61;61.70
84122;BME280;74217;51.106;17.084;2024-03-08T09:57:11;100893.34;;;3.63;60.87
84122;BME280;74217;51.106;17.084;2024-03-08T09:59:56;100896.69;;;3.85;60.86
84122;BME280;74217;51.106;17.084;2024-03-08T10:02:41;100887.03;;;4.02;60.71
84122;BME280;74217;51.106;17.084;2024-03-08T10:05:25;100889.53;;;4.15;61.19
84122;BME280;74217;51.106;17.084;2024-03-08T10:08:10;100887.78;;;4.14;60.79
84122;BME280;74217;51.106;17.084;2024-03-08T10:10:55;100888.56;;;4.25;59.45
84122;BME280;74217;51.106;17.084;2024-03-08T10:13:42;100886.03;;;4.21;58.63
84122;BME280;74217;51.106;17.084;2024-03-08T10:16:27;100883.53;;;4.04;60.17
84122;BME280;74217;51.106;17.084;2024-03-08T10:19:13;100889.47;;;4.21;59.39
84122;BME280;74217;51.106;17.084;2024-03-08T10:21:58;100885.97;;;4.22;58.70
84122;BME280;74217;51.106;17.084;2024-03-08T10:24:45;100881.66;;;4.23;57.92
84122;BME280;74217;51.106;17.084;2024-03-08T10:27:30;100885.09;;;4.26;58.22
84122;BME280;74217;51.106;17.084;2024-03-08T10:30:15;100886.72;;;4.38;58.27
84122;BME280;74217;51.106;17.084;2024-03-08T10:33:04;100883.09;;;4.55;58.38
84122;BME280;74217;51.106;17.084;2024-03-08T10:35:50;100885.47;;;4.78;58.29
84122;BME280;74217;51.106;17.084;2024-03-08T10:38:36;100876.75;;;4.80;57.20
84122;BME280;74217;51.106;17.084;2024-03-08T10:41:24;100888.88;;;4.84;57.80
84122;BME280;74217;51.106;17.084;2024-03-08T10:44:17;100880.47;;;4.57;57.31
84122;BME280;74217;51.106;17.084;2024-03-08T10:49:55;100871.69;;;4.68;55.17
84122;BME280;74217;51.106;17.084;2024-03-08T10:52:49;100857.75;;;4.69;53.85
84122;BME280;74217;51.106;17.084;2024-03-08T10:55:36;100845.50;;;4.77;52.98
84122;BME280;74217;51.106;17.084;2024-03-08T10:58:28;100864.44;;;4.94;54.06
84122;BME280;74217;51.106;17.084;2024-03-08T11:01:13;100858.94;;;5.18;51.15
84122;BME280;74217;51.106;17.084;2024-03-08T11:03:59;100855.63;;;5.03;53.49
84122;BME280;74217;51.106;17.084;2024-03-08T11:06:46;100856.41;;;5.12;53.68
84122;BME280;74217;51.106;17.084;2024-03-08T11:09:35;100862.50;;;5.11;53.52
84122;BME280;74217;51.106;17.084;2024-03-08T11:12:26;100857.22;;;5.14;51.07
84122;BME280;74217;51.106;17.084;2024-03-08T11:15:38;100851.41;;;4.91;53.13
84122;BME280;74217;51.106;17.084;2024-03-08T11:18:23;100836.63;;;4.93;51.82
84122;BME280;74217;51.106;17.084;2024-03-08T11:21:10;100836.50;;;5.05;50.95
84122;BME280;74217;51.106;17.084;2024-03-08T11:24:12;100829.25;;;5.28;51.03
84122;BME280;74217;51.106;17.084;2024-03-08T11:27:00;100817.06;;;5.30;51.27
84122;BME280;74217;51.106;17.084;2024-03-08T11:30:07;100824.59;;;5.48;49.76
84122;BME280;74217;51.106;17.084;2024-03-08T11:33:00;100814.63;;;5.14;50.32
84122;BME280;74217;51.106;17.084;2024-03-08T11:35:46;100811.97;;;5.20;51.38
84122;BME280;74217;51.106;17.084;2024-03-08T11:38:32;100807.63;;;5.22;51.73
84122;BME280;74217;51.106;17.084;2024-03-08T11:41:19;100810.97;;;5.28;51.75
84122;BME280;74217;51.106;17.084;2024-03-08T11:44:05;100800.25;;;5.49;49.84
84122;BME280;74217;51.106;17.084;2024-03-08T11:46:50;100800.25;;;5.49;50.98
84122;BME280;74217;51.106;17.084;2024-03-08T11:49:34;100796.97;;;5.35;51.08
84122;BME280;74217;51.106;17.084;2024-03-08T11:52:19;100794.22;;;5.46;50.81
84122;BME280;74217;51.106;17.084;2024-03-08T11:55:04;100789.59;;;5.63;51.11
84122;BME280;74217;51.106;17.084;2024-03-08T11:57:49;100782.00;;;5.49;50.49
84122;BME280;74217;51.106;17.084;2024-03-08T12:00:34;100791.53;;;5.52;49.10
84122;BME280;74217;51.106;17.084;2024-03-08T12:03:22;100775.97;;;5.46;48.77
84122;BME280;74217;51.106;17.084;2024-03-08T12:06:06;100776.59;;;5.61;48.80
84122;BME280;74217;51.106;17.084;2024-03-08T12:08:53;100753.06;;;5.63;48.62
84122;BME280;74217;51.106;17.084;2024-03-08T12:11:39;100748.00;;;5.54;50.22
84122;BME280;74217;51.106;17.084;2024-03-08T12:14:23;100768.09;;;5.47;51.23
84122;BME280;74217;51.106;17.084;2024-03-08T12:17:09;100776.63;;;5.58;51.60
84122;BME280;74217;51.106;17.084;2024-03-08T12:19:55;100766.06;;;5.67;51.54
84122;BME280;74217;51.106;17.084;2024-03-08T12:22:43;100765.69;;;5.88;49.54
84122;BME280;74217;51.106;17.084;2024-03-08T12:25:33;100759.59;;;5.88;49.30
84122;BME280;74217;51.106;17.084;2024-03-08T12:28:21;100751.56;;;5.98;49.85
84122;BME280;74217;51.106;17.084;2024-03-08T12:31:07;100741.97;;;6.00;48.37
84122;BME280;74217;51.106;17.084;2024-03-08T12:33:55;100747.78;;;6.17;49.50
84122;BME280;74217;51.106;17.084;2024-03-08T12:36:47;100749.09;;;5.92;49.41
84122;BME280;74217;51.106;17.084;2024-03-08T12:39:34;100716.91;;;5.90;48.01
84122;BME280;74217;51.106;17.084;2024-03-08T12:42:19;100741.69;;;6.15;49.08
84122;BME280;74217;51.106;17.084;2024-03-08T12:45:04;100734.63;;;6.20;49.14
84122;BME280;74217;51.106;17.084;2024-03-08T12:47:51;100727.75;;;6.16;47.19
84122;BME280;74217;51.106;17.084;2024-03-08T12:50:37;100721.69;;;6.14;49.17
84122;BME280;74217;51.106;17.084;2024-03-08T12:53:22;100706.72;;;6.22;48.00
84122;BME280;74217;51.106;17.084;2024-03-08T12:56:07;100713.06;;;6.09;48.92
84122;BME280;74217;51.106;17.084;2024-03-08T12:58:53;100700.78;;;6.14;49.73
84122;BME280;74217;51.106;17.084;2024-03-08T13:01:38;100719.75;;;6.25;50.04
84122;BME280;74217;51.106;17.084;2024-03-08T13:04:23;100712.00;;;6.21;49.62
84122;BME280;74217;51.106;17.084;2024-03-08T13:07:07;100704.56;;;6.44;49.06
84122;BME280;74217;51.106;17.084;2024-03-08T13:09:53;100705.06;;;6.62;47.40
84122;BME280;74217;51.106;17.084;2024-03-08T13:12:39;100701.78;;;6.51;48.16
84122;BME280;74217;51.106;17.084;2024-03-08T13:15:23;100695.56;;;6.57;47.68
84122;BME280;74217;51.106;17.084;2024-03-08T13:18:08;100699.31;;;6.45;47.83
84122;BME280;74217;51.106;17.084;2024-03-08T13:20:54;100692.94;;;6.57;47.99
84122;BME280;74217;51.106;17.084;2024-03-08T13:23:41;100687.19;;;6.82;46.89
84122;BME280;74217;51.106;17.084;2024-03-08T13:26:27;100684.59;;;6.81;46.44
84122;BME280;74217;51.106;17.084;2024-03-08T13:29:17;100685.25;;;6.90;47.17
84122;BME280;74217;51.106;17.084;2024-03-08T13:32:03;100678.25;;;6.92;46.70
84122;BME280;74217;51.106;17.084;2024-03-08T13:34:47;100682.13;;;6.73;46.58
84122;BME280;74217;51.106;17.084;2024-03-08T13:37:33;100675.13;;;6.75;48.01
84122;BME280;74217;51.106;17.084;2024-03-08T13:40:17;100678.78;;;6.68;47.99
84122;BME280;74217;51.106;17.084;2024-03-08T13:43:06;100674.47;;;6.67;45.79
84122;BME280;74217;51.106;17.084;2024-03-08T13:45:55;100660.03;;;6.48;46.39
84122;BME280;74217;51.106;17.084;2024-03-08T13:48:39;100665.56;;;6.33;46.83
84122;BME280;74217;51.106;17.084;2024-03-08T13:51:25;100666.78;;;6.58;47.06
84122;BME280;74217;51.106;17.084;2024-03-08T13:54:10;100667.56;;;6.63;46.89
84122;BME280;74217;51.106;17.084;2024-03-08T13:56:55;100661.50;;;6.61;46.79
84122;BME280;74217;51.106;17.084;2024-03-08T13:59:40;100653.59;;;6.64;47.62
84122;BME280;74217;51.106;17.084;2024-03-08T14:02:24;100655.84;;;6.79;46.73
84122;BME280;74217;51.106;17.084;2024-03-08T14:05:12;100650.63;;;6.79;47.22
84122;BME280;74217;51.106;17.084;2024-03-08T14:07:58;100654.22;;;6.75;46.98
84122;BME280;74217;51.106;17.084;2024-03-08T14:10:45;100651.63;;;6.74;47.30
84122;BME280;74217;51.106;17.084;2024-03-08T14:13:34;100648.13;;;6.75;47.40
84122;BME280;74217;51.106;17.084;2024-03-08T14:16:18;100639.50;;;6.70;48.24
84122;BME280;74217;51.106;17.084;2024-03-08T14:19:03;100649.88;;;6.74;48.59
84122;BME280;74217;51.106;17.084;2024-03-08T14:21:49;100649.03;;;6.72;47.70
84122;BME280;74217;51.106;17.084;2024-03-08T14:24:35;100642.22;;;6.65;48.05
84122;BME280;74217;51.106;17.084;2024-03-08T14:27:20;100642.84;;;6.78;47.81
84122;BME280;74217;51.106;17.084;2024-03-08T14:30:04;100634.94;;;6.79;48.20
84122;BME280;74217;51.106;17.084;2024-03-08T14:32:54;100627.94;;;6.81;48.57
84122;BME280;74217;51.106;17.084;2024-03-08T14:35:39;100627.78;;;6.87;46.64
84122;BME280;74217;51.106;17.084;2024-03-08T14:38:24;100626.09;;;6.86;46.55
84122;BME280;74217;51.106;17.084;2024-03-08T14:41:11;100628.84;;;6.80;47.47
84122;BME280;74217;51.106;17.084;2024-03-08T14:43:55;100626.28;;;6.77;47.89
84122;BME280;74217;51.106;17.084;2024-03-08T14:46:41;100626.22;;;6.80;47.81